Hyalite Weather Station

This weather station provides temperature, wind speed, gust or max wind speed, and wind direction at 9982ft near the summit of Flanders Mountain. This data can be used with temperature and precipitation data from the Shower Falls SNOTEL site. If the data has not been updated recently you can view it directly on datagarrison.com

Elevation
9982ft
Jump to table bottom
Date Time Temperature
deg F
RH, % Wind Speed Wind Gust Wind Direction
12/06/21 06:00 9.3 75 23 43 W - 277
12/06/21 05:00 12.9 25 21 33 W - 274
12/06/21 04:00 11.3 30 20 34 W - 277
12/06/21 03:00 10.3 24 19 28 W - 274
12/06/21 02:00 6.0 64 18 28 W - 271
12/06/21 01:00 1.9 86 16 26 W - 278
12/06/21 00:00 1.2 86 13 25 W - 272
12/05/21 23:00 1.7 86 15 27 W - 278
12/05/21 22:00 0.3 86 15 27 W - 279
12/05/21 21:00 0.7 86 10 17 W - 284
12/05/21 20:00 1.0 86 12 18 W - 281
12/05/21 19:00 2.0 86 14 24 W - 282
12/05/21 18:00 2.7 86 15 26 W - 279
12/05/21 17:00 2.7 86 14 24 W - 286
12/05/21 16:00 2.3 86 13 20 W - 286
12/05/21 15:00 2.2 86 11 20 W - 285
12/05/21 14:00 1.7 86 10 18 W - 291
12/05/21 13:00 1.4 86 12 23 NW - 293
12/05/21 12:00 1.3 86 14 29 NW - 295
12/05/21 11:00 2.5 86 15 29 W - 292
12/05/21 10:00 4.7 87 13 31 NW - 296
12/05/21 09:00 6.8 88 14 32 NW - 303
12/05/21 08:00 10.0 89 13 24 NW - 295
12/05/21 07:00 11.5 89 18 36 NW - 295
12/05/21 06:00 16.5 90 29 60 W - 275
12/05/21 05:00 19.6 77 35 61 W - 279
12/05/21 04:00 21.3 74 37 73 W - 285
12/05/21 03:00 22.9 70 36 71 W - 288
12/05/21 02:00 23.7 74 28 59 W - 284
12/05/21 01:00 24.1 75 33 68 W - 282
12/05/21 00:00 25.1 70 37 74 W - 286
12/04/21 23:00 26.2 66 34 75 W - 286
12/04/21 22:00 26.8 66 30 66 W - 286
12/04/21 21:00 27.7 61 29 64 W - 289
12/04/21 20:00 29.0 55 26 53 W - 279
12/04/21 19:00 30.5 46 25 61 W - 275
12/04/21 18:00 31.9 40 25 52 W - 268